Time;durP1;ratioP1;P1;durP2;ratioP2;P2;SDS_P1;SDS_P2;PMS_P1;PMS_P2;Temp;Humidity;BMP_temperature;BMP_pressure;BME280_temperature;BME280_humidity;BME280_pressure;Samples;Min_cycle;Max_cycle;Signal;HPM_P1;HPM_P2
2022/01/10 00:00:54;;;;;;;16.80;14.30;;;;;;;5.14;71.26;100315.28;2581217;23;20231;-69
2022/01/10 00:01:55;;;;;;;19.33;14.15;;;;;;;4.81;71.81;100266.47;2582924;23;20183;-69
2022/01/10 00:02:57;;;;;;;17.50;14.27;;;;;;;5.05;71.47;100295.75;2582352;23;20150;-69
2022/01/10 00:03:58;;;;;;;16.88;13.55;;;;;;;5.17;71.82;100308.22;2582751;23;20575;-69
2022/01/10 00:04:58;;;;;;;17.50;13.53;;;;;;;5.20;71.95;100310.16;2582238;23;20567;-69
2022/01/10 00:05:59;;;;;;;17.53;14.27;;;;;;;5.19;72.09;100312.13;2582746;23;20154;-69
2022/01/10 00:07:00;;;;;;;15.67;13.17;;;;;;;5.33;71.14;100325.75;2582489;23;20176;-69
2022/01/10 00:08:04;;;;;;;15.17;12.60;;;;;;;5.37;70.68;100326.50;2582537;23;20555;-69
2022/01/10 00:09:05;;;;;;;17.83;14.00;;;;;;;5.40;71.49;100324.94;2582574;23;20612;-69
2022/01/10 00:10:06;;;;;;;18.83;14.40;;;;;;;5.42;70.76;100326.09;2580858;23;20521;-69
2022/01/10 00:11:07;;;;;;;17.63;13.93;;;;;;;5.19;70.31;100292.88;2568578;23;20162;-69
2022/01/10 00:12:08;;;;;;;19.03;14.30;;;;;;;5.45;70.53;100327.25;2569335;23;20151;-69
2022/01/10 00:13:09;;;;;;;18.73;14.17;;;;;;;5.44;71.14;100336.69;2582472;23;20500;-69
2022/01/10 00:14:09;;;;;;;17.87;14.00;;;;;;;5.47;70.90;100325.66;2581332;23;20213;-69
2022/01/10 00:15:10;;;;;;;18.93;14.37;;;;;;;5.45;70.56;100328.03;2582043;23;20155;-69
2022/01/10 00:16:11;;;;;;;17.90;14.32;;;;;;;5.43;71.14;100335.88;2582559;23;20150;-69
2022/01/10 00:17:11;;;;;;;18.10;14.43;;;;;;;5.28;71.23;100309.69;2582446;23;20235;-69
2022/01/10 00:18:12;;;;;;;19.60;15.27;;;;;;;5.48;71.44;100337.44;2582436;23;20179;-69
2022/01/10 00:19:12;;;;;;;19.83;14.40;;;;;;;5.49;71.13;100336.25;2582714;23;20162;-69
2022/01/10 00:20:17;;;;;;;18.53;14.40;;;;;;;5.52;70.83;100338.16;2580894;23;20154;-69
2022/01/10 00:21:17;;;;;;;18.95;14.60;;;;;;;5.56;70.71;100336.19;2582607;23;20155;-69
2022/01/10 00:22:19;;;;;;;19.80;14.83;;;;;;;5.55;70.85;100335.38;2582574;23;20218;-69
2022/01/10 00:23:20;;;;;;;17.92;14.07;;;;;;;5.55;71.02;100337.38;2582516;23;20149;-69
2022/01/10 00:24:20;;;;;;;19.40;15.40;;;;;;;4.98;70.66;100245.59;2582312;23;20223;-69
2022/01/10 00:25:22;;;;;;;20.10;15.63;;;;;;;5.57;70.48;100341.28;2582480;23;20429;-69
2022/01/10 00:26:23;;;;;;;18.15;14.25;;;;;;;5.60;71.23;100340.44;2582475;23;20562;-69
2022/01/10 00:27:23;;;;;;;19.77;15.40;;;;;;;5.58;70.78;100337.34;2582751;23;20154;-69
2022/01/10 00:28:24;;;;;;;21.20;16.00;;;;;;;5.64;70.52;100345.94;2582506;23;20163;-69
2022/01/10 00:29:24;;;;;;;20.77;15.43;;;;;;;5.58;70.07;100337.34;2582623;23;20180;-69
2022/01/10 00:30:25;;;;;;;19.47;14.60;;;;;;;4.48;70.78;100162.81;2580824;23;20148;-69
2022/01/10 00:31:26;;;;;;;19.98;15.32;;;;;;;5.56;70.67;100333.44;2582586;23;20170;-69
2022/01/10 00:32:26;;;;;;;20.13;14.23;;;;;;;4.81;70.93;100227.25;2582426;23;20209;-69
2022/01/10 00:33:27;;;;;;;18.90;15.37;;;;;;;5.27;71.31;100310.09;2582573;23;20438;-69
2022/01/10 00:34:28;;;;;;;21.07;15.77;;;;;;;5.47;71.45;100338.59;2582128;23;20230;-69
2022/01/10 00:35:28;;;;;;;20.93;16.33;;;;;;;5.42;71.58;100337.06;2582460;23;20553;-69
2022/01/10 00:36:29;;;;;;;23.17;16.37;;;;;;;5.13;71.16;100291.75;2582498;23;20167;-69
2022/01/10 00:37:29;;;;;;;20.73;15.60;;;;;;;4.79;71.42;100243.38;2582376;23;20189;-69
2022/01/10 00:38:30;;;;;;;20.70;15.93;;;;;;;5.05;71.83;100300.44;2582375;23;20180;-69
2022/01/10 00:39:30;;;;;;;22.70;16.53;;;;;;;5.37;71.54;100333.97;2582593;23;20171;-69
2022/01/10 00:40:31;;;;;;;21.53;16.70;;;;;;;5.40;71.76;100335.91;2580984;23;20148;-69
2022/01/10 00:41:31;;;;;;;24.23;16.73;;;;;;;4.62;72.24;100225.81;2582598;23;20180;-69
2022/01/10 00:42:32;;;;;;;22.47;16.97;;;;;;;5.44;72.10;100331.19;2582467;23;20151;-69
2022/01/10 00:43:36;;;;;;;21.70;17.20;;;;;;;5.34;72.21;100324.56;2582369;23;20176;-69
2022/01/10 00:44:44;;;;;;;21.90;16.75;;;;;;;5.35;72.01;100333.59;2582195;23;20223;-69
2022/01/10 00:45:45;;;;;;;25.88;16.65;;;;;;;4.75;72.21;100270.84;2582837;23;20166;-69
2022/01/10 00:46:46;;;;;;;22.43;16.37;;;;;;;5.26;72.81;100338.75;2582109;23;20158;-69
2022/01/10 00:47:46;;;;;;;24.03;17.43;;;;;;;5.27;72.86;100334.81;2582342;23;20183;-69
2022/01/10 00:48:47;;;;;;;23.27;16.97;;;;;;;5.31;72.90;100332.84;2582306;23;20236;-69
2022/01/10 00:49:48;;;;;;;24.20;17.27;;;;;;;5.35;73.19;100333.59;2581881;23;20148;-69
2022/01/10 00:50:48;;;;;;;25.17;17.83;;;;;;;5.33;73.29;100328.50;2581709;23;20148;-69
2022/01/10 00:51:49;;;;;;;22.83;16.83;;;;;;;5.03;72.90;100286.34;2582659;23;20151;-69
2022/01/10 00:52:49;;;;;;;24.63;17.43;;;;;;;5.33;72.59;100333.22;2582179;23;20239;-69
2022/01/10 00:53:51;;;;;;;23.47;16.90;;;;;;;5.33;72.78;100331.25;2582601;23;20286;-69
2022/01/10 00:54:51;;;;;;;23.95;17.20;;;;;;;4.98;72.75;100275.78;2568597;23;20161;-69
2022/01/10 00:55:53;;;;;;;24.87;17.70;;;;;;;5.29;72.71;100330.50;2569287;23;20178;-69
2022/01/10 00:56:53;;;;;;;26.85;17.45;;;;;;;3.82;72.80;100106.41;2581962;23;20158;-69
2022/01/10 00:57:53;;;;;;;25.33;17.93;;;;;;;5.10;73.09;100306.31;2582251;23;20182;-69
2022/01/10 00:58:54;;;;;;;26.70;17.87;;;;;;;5.32;73.17;100329.69;2568798;23;20163;-69
2022/01/10 00:59:54;;;;;;;23.27;16.80;;;;;;;5.29;72.73;100332.47;2555318;23;20184;-69
2022/01/10 01:00:55;;;;;;;26.70;17.63;;;;;;;4.89;73.10;100311.16;2568823;23;20297;-69
2022/01/10 01:01:56;;;;;;;24.10;17.00;;;;;;;4.90;73.05;100285.25;2569160;23;20167;-69
2022/01/10 01:02:58;;;;;;;23.73;17.60;;;;;;;4.69;73.56;100249.69;2568830;23;20158;-69
2022/01/10 01:03:59;;;;;;;26.95;18.10;;;;;;;5.19;73.07;100334.09;2582485;23;20439;-69
2022/01/10 01:05:01;;;;;;;27.87;18.80;;;;;;;5.11;74.12;100334.53;2582091;23;20219;-69
2022/01/10 01:06:02;;;;;;;23.33;17.02;;;;;;;5.14;74.12;100336.50;2582509;23;20210;-69
2022/01/10 01:07:02;;;;;;;25.27;18.20;;;;;;;4.28;73.70;100191.16;2582314;23;20163;-69
2022/01/10 01:08:06;;;;;;;25.70;17.77;;;;;;;5.22;74.04;100327.81;2582312;23;20183;-69
2022/01/10 01:09:10;;;;;;;23.92;17.60;;;;;;;5.19;73.43;100325.84;2582461;23;20185;-69
2022/01/10 01:12:48;;;;;;;26.35;17.63;;;;;;;5.27;73.75;100321.88;2582329;23;20143;-69
2022/01/10 01:13:53;;;;;;;24.20;16.90;;;;;;;5.24;73.80;100328.16;2582525;23;20138;-69
2022/01/10 01:14:56;;;;;;;26.90;18.50;;;;;;;5.29;74.06;100325.00;2581933;23;20217;-69
2022/01/10 01:17:24;;;;;;;24.10;17.77;;;;;;;5.35;73.69;100328.91;2582407;23;20207;-69
2022/01/10 01:24:53;;;;;;;24.38;16.75;;;;;;;5.49;72.49;100325.25;2582017;23;20590;-69
2022/01/10 01:25:54;;;;;;;24.07;16.33;;;;;;;5.44;72.61;100323.69;2569111;23;20637;-69
2022/01/10 01:26:55;;;;;;;23.25;16.88;;;;;;;5.44;72.75;100325.69;2568769;23;20165;-69
2022/01/10 01:27:55;;;;;;;23.50;16.60;;;;;;;5.00;72.66;100248.72;2581973;23;20151;-69
2022/01/10 01:28:56;;;;;;;23.90;16.83;;;;;;;5.08;72.30;100266.72;2582096;23;20624;-69
2022/01/10 01:29:57;;;;;;;23.67;17.15;;;;;;;5.37;72.44;100328.47;2580708;23;20165;-69
2022/01/10 01:30:57;;;;;;;27.13;17.43;;;;;;;5.39;72.99;100324.13;2581939;23;20570;-69
2022/01/10 01:31:58;;;;;;;23.10;16.50;;;;;;;4.70;72.81;100229.31;2582315;23;20604;-69
2022/01/10 01:32:59;;;;;;;23.25;16.30;;;;;;;5.28;72.65;100304.22;2581843;23;20158;-69
2022/01/10 01:34:00;;;;;;;23.63;16.43;;;;;;;4.90;72.64;100250.34;2568857;23;20382;-69
2022/01/10 01:35:07;;;;;;;21.13;16.30;;;;;;;5.36;73.06;100318.66;2568676;23;20189;-69
2022/01/10 01:36:07;;;;;;;24.65;17.98;;;;;;;5.24;73.08;100311.69;2568654;23;20205;-69
2022/01/10 01:37:09;;;;;;;25.37;17.17;;;;;;;5.24;73.57;100308.94;2568696;23;20155;-69
2022/01/10 01:38:10;;;;;;;25.77;17.45;;;;;;;4.81;73.17;100251.97;2581872;23;20185;-69
2022/01/10 01:39:19;;;;;;;26.27;17.93;;;;;;;5.20;73.47;100310.16;2582344;23;20169;-69
2022/01/10 01:40:21;;;;;;;24.77;17.25;;;;;;;5.21;73.94;100312.50;2580529;23;20199;-69
2022/01/10 01:41:36;;;;;;;23.65;17.02;;;;;;;5.24;73.67;100311.69;2582512;23;20199;-69
2022/01/10 01:42:42;;;;;;;22.27;17.10;;;;;;;5.14;73.80;100295.28;2568744;23;20153;-69
2022/01/10 01:43:43;;;;;;;26.50;18.13;;;;;;;5.30;73.77;100312.03;2570164;23;20594;-69
2022/01/10 01:44:48;;;;;;;25.48;17.95;;;;;;;4.64;73.94;100208.97;2581670;23;20182;-69
2022/01/10 01:45:49;;;;;;;25.77;18.02;;;;;;;5.40;74.27;100319.44;2568980;23;20161;-69
2022/01/10 01:46:50;;;;;;;24.98;17.45;;;;;;;5.18;73.15;100277.59;2568518;23;20150;-69
2022/01/10 01:47:50;;;;;;;24.53;17.33;;;;;;;5.38;73.52;100300.59;2582156;23;20151;-69
2022/01/10 01:48:52;;;;;;;24.40;17.83;;;;;;;5.47;73.28;100311.13;2581912;23;20222;-69
2022/01/10 01:49:53;;;;;;;23.50;17.00;;;;;;;5.13;73.01;100258.03;2581033;23;20148;-69
2022/01/10 01:50:53;;;;;;;23.07;17.60;;;;;;;5.52;73.04;100314.22;2581731;23;20156;-69
2022/01/10 01:51:54;;;;;;;22.93;16.93;;;;;;;5.55;73.07;100313.41;2568922;23;20219;-69
2022/01/10 01:52:54;;;;;;;21.97;16.50;;;;;;;5.61;73.75;100311.78;2568587;23;20156;-69
2022/01/10 01:53:55;;;;;;;22.40;16.67;;;;;;;5.66;73.15;100313.31;2582273;23;20190;-69
2022/01/10 01:54:56;;;;;;;23.43;17.57;;;;;;;5.65;73.33;100311.75;2581692;23;20613;-69
2022/01/10 01:55:57;;;;;;;22.43;16.70;;;;;;;5.71;73.05;100316.41;2582298;23;20155;-69
2022/01/10 01:56:58;;;;;;;24.00;17.35;;;;;;;4.93;72.59;100207.59;2582014;23;20216;-69
2022/01/10 01:57:59;;;;;;;25.65;17.92;;;;;;;5.55;72.45;100282.41;2581653;23;20154;-69
2022/01/10 01:58:59;;;;;;;22.47;16.97;;;;;;;5.82;72.41;100319.09;2582066;23;20157;-69
2022/01/10 02:00:00;;;;;;;24.80;17.50;;;;;;;5.82;72.52;100313.59;2580520;23;20635;-69
2022/01/10 02:01:00;;;;;;;25.07;18.20;;;;;;;5.80;71.92;100321.47;2581980;23;20151;-69
2022/01/10 02:02:01;;;;;;;26.80;17.77;;;;;;;5.28;72.36;100235.53;2582219;23;20242;-69
2022/01/10 02:03:02;;;;;;;23.97;16.87;;;;;;;5.82;72.09;100313.59;2568537;23;20738;-69
2022/01/10 02:04:03;;;;;;;26.75;17.83;;;;;;;5.63;71.95;100279.19;2568771;23;20245;-69
2022/01/10 02:05:04;;;;;;;26.38;17.20;;;;;;;5.81;71.98;100314.78;2581315;23;20190;-69
2022/01/10 02:06:06;;;;;;;24.20;17.23;;;;;;;5.04;71.36;100183.56;2581993;23;20160;-69
2022/01/10 02:07:06;;;;;;;26.55;17.65;;;;;;;5.87;71.73;100313.16;2581971;23;20231;-69
2022/01/10 02:08:09;;;;;;;24.80;17.30;;;;;;;5.92;71.41;100318.19;2581863;23;20147;-69
2022/01/10 02:09:14;;;;;;;25.80;17.48;;;;;;;5.89;71.16;100310.78;2582210;23;20151;-69
2022/01/10 02:10:15;;;;;;;25.45;16.80;;;;;;;5.87;71.95;100313.16;2566843;23;20221;-69
2022/01/10 02:11:15;;;;;;;26.13;17.57;;;;;;;5.87;71.68;100324.16;2569087;23;20129;-69
2022/01/10 02:12:16;;;;;;;23.63;16.83;;;;;;;5.85;71.35;100318.28;2569420;23;20152;-69
2022/01/10 02:13:16;;;;;;;24.07;16.50;;;;;;;5.76;71.29;100302.22;2569679;23;20147;-69
2022/01/10 02:14:18;;;;;;;24.27;17.43;;;;;;;5.44;71.38;100279.72;2569197;23;20158;-69
2022/01/10 02:15:43;;;;;;;29.13;18.02;;;;;;;5.60;72.13;100314.94;2569662;23;20197;-69
2022/01/10 02:16:45;;;;;;;25.23;17.88;;;;;;;5.30;72.12;100301.06;2569442;23;20527;-69
2022/01/10 02:17:48;;;;;;;31.05;18.70;;;;;;;4.89;72.95;100248.78;2569671;23;20157;-69
2022/01/10 02:18:49;;;;;;;26.45;17.98;;;;;;;4.70;73.28;100226.56;2569288;23;20156;-69
2022/01/10 02:19:57;;;;;;;27.67;18.57;;;;;;;5.40;73.60;100314.72;2568559;23;20158;-69
2022/01/10 02:21:00;;;;;;;28.70;18.92;;;;;;;5.06;73.12;100272.59;2568506;23;20599;-69
2022/01/10 02:22:00;;;;;;;24.10;17.52;;;;;;;4.79;73.54;100229.63;2568994;23;20712;-69
2022/01/10 02:23:02;;;;;;;27.03;17.87;;;;;;;5.52;74.06;100327.16;2569277;23;20488;-69
2022/01/10 02:24:04;;;;;;;27.63;17.70;;;;;;;5.54;73.30;100317.34;2569415;23;20167;-69
2022/01/10 02:25:05;;;;;;;27.73;18.52;;;;;;;5.18;73.25;100255.63;2569669;23;20236;-69
2022/01/10 02:26:06;;;;;;;28.25;17.77;;;;;;;5.63;73.22;100323.16;2569479;23;20162;-69
2022/01/10 02:27:06;;;;;;;26.70;17.80;;;;;;;5.65;73.12;100320.78;2568373;23;20182;-69
2022/01/10 02:28:07;;;;;;;27.53;17.43;;;;;;;5.66;73.13;100316.06;2568654;23;20590;-69
2022/01/10 02:29:07;;;;;;;28.00;19.13;;;;;;;5.71;72.80;100319.16;2569650;23;20174;-69
2022/01/10 02:30:08;;;;;;;28.47;17.10;;;;;;;5.73;73.10;100316.78;2567790;23;20439;-69
2022/01/10 02:31:09;;;;;;;24.33;17.30;;;;;;;5.03;73.22;100212.22;2569781;23;20159;-69
2022/01/10 02:32:10;;;;;;;24.80;16.93;;;;;;;5.76;72.43;100315.19;2569344;23;20147;-69
2022/01/10 02:33:10;;;;;;;27.53;17.63;;;;;;;5.78;72.86;100315.56;2568710;23;20162;-69
2022/01/10 02:34:16;;;;;;;26.37;18.37;;;;;;;5.31;72.54;100244.91;2568491;23;20201;-69
2022/01/10 02:35:30;;;;;;;27.80;18.67;;;;;;;5.74;72.55;100315.59;2570517;23;20232;-69
2022/01/10 02:36:31;;;;;;;29.17;17.30;;;;;;;5.69;72.37;100318.78;2570190;23;20143;-69
2022/01/10 02:37:36;;;;;;;27.33;18.77;;;;;;;5.58;72.64;100314.56;2570320;23;20151;-69
2022/01/10 02:38:44;;;;;;;27.95;18.48;;;;;;;5.64;72.92;100315.69;2570159;23;20182;-69
2022/01/10 02:39:45;;;;;;;28.13;18.73;;;;;;;5.69;73.11;100327.03;2569849;23;20219;-69
2022/01/10 02:40:47;;;;;;;28.33;18.80;;;;;;;5.72;73.13;100323.47;2568372;23;20159;-69
2022/01/10 02:41:47;;;;;;;27.58;18.65;;;;;;;5.27;73.33;100249.66;2569871;23;20213;-69
2022/01/10 02:42:49;;;;;;;28.13;18.47;;;;;;;5.09;73.12;100218.81;2570002;23;20151;-69
2022/01/10 02:43:51;;;;;;;30.02;18.75;;;;;;;5.75;72.74;100321.88;2569462;23;20158;-69
2022/01/10 02:44:52;;;;;;;27.27;17.75;;;;;;;5.32;72.79;100252.75;2569158;23;20153;-69
2022/01/10 02:45:55;;;;;;;26.50;18.60;;;;;;;5.78;72.98;100332.06;2570624;23;20155;-69
2022/01/10 02:46:56;;;;;;;29.65;19.67;;;;;;;5.67;72.77;100309.38;2570151;23;20156;-69
2022/01/10 02:47:56;;;;;;;29.00;18.60;;;;;;;5.82;72.54;100319.88;2569338;23;20633;-69
2022/01/10 02:48:57;;;;;;;28.47;18.07;;;;;;;5.79;72.05;100309.66;2569384;23;20612;-69
2022/01/10 02:49:58;;;;;;;30.70;18.77;;;;;;;5.92;71.90;100326.47;2568844;23;20222;-69
2022/01/10 02:50:59;;;;;;;25.52;18.20;;;;;;;4.73;71.94;100154.41;2570065;23;20159;-69
2022/01/10 02:52:00;;;;;;;28.73;19.13;;;;;;;5.93;72.19;100328.00;2570496;23;20158;-69
2022/01/10 02:53:01;;;;;;;29.63;19.30;;;;;;;5.56;72.43;100271.00;2570088;23;20187;-69
2022/01/10 02:54:01;;;;;;;30.20;19.43;;;;;;;5.97;72.51;100337.00;2570343;23;20158;-69
2022/01/10 02:55:04;;;;;;;29.77;18.57;;;;;;;5.89;71.90;100317.06;2569220;23;20586;-69
2022/01/10 02:56:05;;;;;;;27.75;18.35;;;;;;;5.94;72.57;100332.34;2569352;23;20163;-69
2022/01/10 02:57:05;;;;;;;28.90;18.87;;;;;;;5.99;71.80;100335.41;2569988;23;20183;-69
2022/01/10 02:58:06;;;;;;;25.37;17.83;;;;;;;6.02;71.69;100328.31;2569991;23;20160;-69
2022/01/10 02:59:09;;;;;;;28.17;18.53;;;;;;;6.01;72.21;100335.78;2570333;23;20501;-69
2022/01/10 03:00:14;;;;;;;30.23;18.88;;;;;;;5.64;71.83;100260.72;2568599;23;20680;-69
2022/01/10 03:01:14;;;;;;;28.85;18.63;;;;;;;5.86;71.69;100295.09;2570504;23;20153;-69
2022/01/10 03:02:20;;;;;;;27.27;17.70;;;;;;;6.06;71.54;100332.59;2569199;23;20197;-69
2022/01/10 03:03:21;;;;;;;27.65;18.55;;;;;;;6.01;71.48;100322.03;2569506;23;20234;-69
2022/01/10 03:04:21;;;;;;;27.53;18.43;;;;;;;5.23;71.05;100207.72;2569954;23;20151;-69
2022/01/10 03:05:23;;;;;;;26.50;17.87;;;;;;;5.97;71.46;100326.81;2570388;23;20172;-69
2022/01/10 03:06:24;;;;;;;29.25;18.85;;;;;;;5.95;71.59;100328.41;2570141;23;20209;-69
2022/01/10 03:07:25;;;;;;;27.70;18.80;;;;;;;5.53;71.78;100262.81;2570137;23;20152;-69
2022/01/10 03:08:27;;;;;;;26.90;18.33;;;;;;;5.96;71.44;100327.22;2570108;23;20606;-69
2022/01/10 03:09:27;;;;;;;26.70;17.83;;;;;;;5.85;71.81;100299.03;2570343;23;20378;-69
2022/01/10 03:10:28;;;;;;;26.90;18.77;;;;;;;5.94;71.63;100326.84;2573182;23;20197;-69
2022/01/10 03:11:29;;;;;;;26.23;18.00;;;;;;;5.41;71.94;100241.31;2569555;23;20440;-69
2022/01/10 03:12:31;;;;;;;30.80;19.13;;;;;;;5.96;71.69;100333.50;2569165;23;20238;-69
2022/01/10 03:13:31;;;;;;;28.45;19.58;;;;;;;5.95;71.60;100333.91;2582921;23;20195;-69
2022/01/10 03:14:32;;;;;;;30.00;18.53;;;;;;;5.14;71.83;100210.16;2582431;23;20154;-69
2022/01/10 03:15:32;;;;;;;29.90;18.83;;;;;;;5.94;72.16;100326.84;2582875;23;20152;-69
2022/01/10 03:16:33;;;;;;;28.30;19.47;;;;;;;5.92;72.18;100331.94;2582458;23;20158;-69
2022/01/10 03:17:35;;;;;;;29.20;18.93;;;;;;;5.92;72.18;100330.00;2582648;23;20230;-69
2022/01/10 03:18:36;;;;;;;27.23;18.13;;;;;;;5.96;72.44;100328.00;2582534;23;20182;-69
2022/01/10 03:19:39;;;;;;;28.15;19.13;;;;;;;5.44;72.21;100266.00;2581518;23;20166;-69
2022/01/10 03:20:39;;;;;;;25.23;17.05;;;;;;;5.99;72.46;100340.91;2580634;23;20153;-69
2022/01/10 03:21:40;;;;;;;28.83;19.40;;;;;;;6.01;72.07;100351.53;2583014;23;20182;-69
2022/01/10 03:22:40;;;;;;;27.83;18.77;;;;;;;5.93;72.09;100326.06;2582603;23;20154;-69
2022/01/10 03:23:41;;;;;;;30.67;19.27;;;;;;;6.00;71.85;100336.97;2582771;23;20151;-69
2022/01/10 03:24:41;;;;;;;29.47;18.70;;;;;;;5.57;71.92;100269.03;2582277;23;20151;-69
2022/01/10 03:25:42;;;;;;;25.43;17.53;;;;;;;6.07;71.89;100347.13;2582964;23;20493;-69
2022/01/10 03:26:42;;;;;;;29.77;18.23;;;;;;;6.06;71.80;100332.59;2569052;23;20151;-69
2022/01/10 03:27:43;;;;;;;24.90;17.70;;;;;;;5.75;71.72;100295.16;2569524;23;20179;-69
2022/01/10 03:28:43;;;;;;;26.57;17.53;;;;;;;6.14;71.64;100338.78;2582425;23;20147;-69
2022/01/10 03:29:44;;;;;;;26.50;17.07;;;;;;;5.83;71.46;100291.19;2582004;23;20183;-69
2022/01/10 03:30:44;;;;;;;27.10;17.40;;;;;;;5.82;71.44;100286.88;2581600;23;20159;-69
2022/01/10 03:31:45;;;;;;;25.50;17.07;;;;;;;5.44;70.87;100244.00;2582775;23;20151;-69
2022/01/10 03:32:47;;;;;;;25.07;17.73;;;;;;;6.16;71.62;100339.94;2582355;23;20152;-69
2022/01/10 03:33:48;;;;;;;29.42;17.92;;;;;;;6.16;71.95;100347.44;2569449;23;20283;-69
2022/01/10 03:34:49;;;;;;;25.10;16.87;;;;;;;6.14;71.16;100345.09;2568907;23;20151;-69
2022/01/10 03:35:49;;;;;;;27.17;17.83;;;;;;;6.14;71.09;100339.59;2582962;23;20210;-69
2022/01/10 03:36:50;;;;;;;25.80;17.70;;;;;;;6.16;71.16;100344.69;2582492;23;20234;-69
2022/01/10 03:37:50;;;;;;;26.40;17.10;;;;;;;6.15;71.57;100341.16;2569082;23;20636;-69
2022/01/10 03:38:51;;;;;;;25.57;17.37;;;;;;;6.16;71.33;100348.19;2569209;23;20179;-69
2022/01/10 03:39:52;;;;;;;26.07;17.27;;;;;;;5.84;70.72;100308.47;2581580;23;20252;-69
2022/01/10 03:40:52;;;;;;;27.43;18.37;;;;;;;6.11;70.75;100354.16;2581965;23;20175;-69
2022/01/10 03:41:53;;;;;;;26.90;17.67;;;;;;;5.57;71.18;100264.31;2582932;23;20151;-69
2022/01/10 03:42:53;;;;;;;27.87;17.43;;;;;;;5.71;70.95;100290.88;2581600;23;20188;-69
2022/01/10 03:43:54;;;;;;;28.43;18.43;;;;;;;6.04;71.60;100345.19;2581926;23;20185;-69
2022/01/10 03:44:54;;;;;;;28.03;18.53;;;;;;;6.14;70.87;100356.09;2582203;23;20154;-69
2022/01/10 03:45:57;;;;;;;27.53;17.77;;;;;;;6.10;71.27;100344.34;2582697;23;20186;-70
2022/01/10 03:46:57;;;;;;;26.30;17.38;;;;;;;5.76;70.69;100306.94;2582220;23;20558;-69
2022/01/10 03:47:58;;;;;;;28.90;18.10;;;;;;;6.14;70.79;100347.84;2582427;23;20293;-69
2022/01/10 03:49:00;;;;;;;25.20;17.73;;;;;;;6.07;71.06;100338.88;2569149;23;20208;-69
2022/01/10 03:50:00;;;;;;;27.23;17.42;;;;;;;6.04;70.97;100334.97;2567987;23;20160;-69
2022/01/10 03:51:01;;;;;;;28.93;17.63;;;;;;;6.08;71.05;100348.69;2569125;23;20163;-69
2022/01/10 03:52:02;;;;;;;26.73;17.10;;;;;;;6.07;70.99;100347.91;2569452;23;20154;-70
2022/01/10 03:53:03;;;;;;;24.65;16.98;;;;;;;5.47;71.22;100264.41;2582378;23;20155;-70
2022/01/10 03:54:04;;;;;;;26.63;17.13;;;;;;;6.08;71.23;100348.69;2569066;23;20569;-70
2022/01/10 03:55:05;;;;;;;24.37;16.87;;;;;;;5.69;71.46;100296.78;2569385;23;20337;-69
2022/01/10 03:56:05;;;;;;;26.73;17.77;;;;;;;6.06;71.77;100351.06;2582416;23;20503;-69
2022/01/10 03:57:06;;;;;;;25.07;17.73;;;;;;;6.06;71.77;100354.59;2582665;23;20225;-70
2022/01/10 03:58:06;;;;;;;24.67;17.07;;;;;;;6.08;71.32;100356.94;2582379;23;20189;-69
2022/01/10 03:59:07;;;;;;;29.70;17.90;;;;;;;6.10;70.87;100343.56;2582659;23;20155;-69
2022/01/10 04:00:09;;;;;;;26.17;17.27;;;;;;;6.08;71.07;100354.97;2580905;23;20159;-69
2022/01/10 04:01:12;;;;;;;26.65;17.58;;;;;;;6.09;71.25;100355.75;2582488;23;20144;-70
2022/01/10 04:02:12;;;;;;;24.92;16.55;;;;;;;6.07;71.40;100355.38;2568945;23;20228;-69
2022/01/10 04:03:13;;;;;;;25.17;16.30;;;;;;;6.05;71.19;100363.28;2569360;23;20197;-69
2022/01/10 04:04:14;;;;;;;25.77;17.27;;;;;;;5.54;71.20;100281.59;2582168;23;20162;-69
2022/01/10 04:05:14;;;;;;;23.23;15.93;;;;;;;5.18;70.89;100239.13;2582736;23;20155;-69
2022/01/10 04:06:15;;;;;;;23.27;16.60;;;;;;;6.03;70.88;100360.94;2569085;23;20205;-69
2022/01/10 04:07:17;;;;;;;28.23;16.90;;;;;;;6.05;71.67;100361.28;2569079;23;20625;-69
2022/01/10 04:08:18;;;;;;;26.95;16.35;;;;;;;5.95;70.73;100353.16;2582282;23;20566;-69
2022/01/10 04:09:20;;;;;;;25.73;16.50;;;;;;;6.00;71.08;100369.97;2582689;23;20234;-69
2022/01/10 04:10:20;;;;;;;25.23;16.98;;;;;;;5.97;70.99;100368.06;2580389;23;20150;-69
2022/01/10 04:11:21;;;;;;;23.70;15.83;;;;;;;5.71;70.81;100324.66;2582779;23;20135;-69
2022/01/10 04:12:21;;;;;;;25.17;16.53;;;;;;;5.98;71.38;100368.81;2582389;23;20235;-69
2022/01/10 04:13:23;;;;;;;25.03;16.27;;;;;;;5.20;71.37;100250.53;2582601;23;20179;-69
2022/01/10 04:14:24;;;;;;;24.55;16.42;;;;;;;6.03;71.44;100360.94;2582060;23;20637;-69
2022/01/10 04:15:24;;;;;;;27.23;16.40;;;;;;;6.03;71.05;100369.19;2582694;23;20155;-69
2022/01/10 04:16:25;;;;;;;25.60;16.67;;;;;;;6.04;71.16;100372.69;2582272;23;20161;-69
2022/01/10 04:17:25;;;;;;;24.93;16.13;;;;;;;6.01;71.04;100362.53;2582377;23;20288;-69
2022/01/10 04:18:26;;;;;;;22.60;16.67;;;;;;;6.05;71.13;100377.78;2582292;23;20182;-69
2022/01/10 04:19:26;;;;;;;24.00;16.40;;;;;;;6.04;70.88;100378.19;2582720;23;20174;-69
2022/01/10 04:20:27;;;;;;;24.83;16.20;;;;;;;6.06;71.58;100376.59;2580704;23;20613;-69
2022/01/10 04:21:27;;;;;;;25.63;17.60;;;;;;;6.06;71.34;100379.34;2582509;23;20151;-69
2022/01/10 04:22:28;;;;;;;20.67;15.33;;;;;;;6.04;71.65;100392.75;2582346;23;20158;-69
2022/01/10 04:23:28;;;;;;;22.67;15.53;;;;;;;5.95;71.35;100364.91;2582423;23;20144;-69
2022/01/10 04:24:29;;;;;;;23.53;16.07;;;;;;;6.04;71.11;100387.25;2582027;23;20163;-69
2022/01/10 04:25:29;;;;;;;23.93;15.97;;;;;;;6.06;70.58;100384.84;2582663;23;20190;-69
2022/01/10 04:26:30;;;;;;;25.47;15.90;;;;;;;6.06;71.12;100390.34;2582361;23;20151;-69
2022/01/10 04:27:32;;;;;;;26.00;16.53;;;;;;;6.05;71.28;100410.81;2582258;23;20230;-69
2022/01/10 04:28:32;;;;;;;24.05;16.90;;;;;;;5.98;70.92;100375.13;2582389;23;20151;-69
2022/01/10 04:29:33;;;;;;;24.03;16.80;;;;;;;5.70;71.30;100336.06;2582538;23;20151;-69
2022/01/10 04:30:34;;;;;;;26.37;17.63;;;;;;;6.08;71.17;100396.25;2580702;23;20147;-69
2022/01/10 04:31:35;;;;;;;26.15;17.45;;;;;;;6.11;70.90;100392.66;2582274;23;20190;-69
2022/01/10 04:32:35;;;;;;;23.43;17.33;;;;;;;6.09;70.55;100395.06;2582256;23;20151;-69
2022/01/10 04:33:36;;;;;;;24.00;17.07;;;;;;;5.96;70.82;100380.25;2582751;23;20203;-69
2022/01/10 04:34:36;;;;;;;24.73;17.50;;;;;;;5.47;70.78;100308.38;2581911;23;20200;-69
2022/01/10 04:35:37;;;;;;;24.50;16.17;;;;;;;5.83;71.27;100362.69;2582554;23;20155;-69
2022/01/10 04:36:37;;;;;;;25.60;17.07;;;;;;;5.91;71.34;100369.69;2582182;23;20160;-69
2022/01/10 04:37:39;;;;;;;27.07;18.00;;;;;;;6.01;71.26;100379.03;2582643;23;20249;-69
2022/01/10 04:38:42;;;;;;;26.20;18.08;;;;;;;6.06;70.91;100398.59;2581994;23;20518;-69
2022/01/10 04:39:43;;;;;;;24.70;18.08;;;;;;;5.99;70.89;100382.19;2582040;23;20154;-69
2022/01/10 04:40:43;;;;;;;26.87;18.27;;;;;;;6.05;71.35;100401.78;2581415;23;20151;-69
2022/01/10 04:41:44;;;;;;;25.27;17.83;;;;;;;6.05;70.95;100399.03;2569285;23;20168;-69
2022/01/10 04:42:45;;;;;;;26.17;18.08;;;;;;;6.06;71.42;100395.09;2568773;23;20235;-69
2022/01/10 04:43:45;;;;;;;27.10;19.53;;;;;;;5.98;70.88;100386.13;2582427;23;20147;-69
2022/01/10 04:44:48;;;;;;;28.50;20.87;;;;;;;5.99;70.77;100378.63;2581796;23;20157;-69
2022/01/10 04:45:49;;;;;;;28.05;20.02;;;;;;;6.08;70.89;100401.75;2582597;23;20161;-69
2022/01/10 04:46:51;;;;;;;29.80;20.43;;;;;;;6.08;70.55;100399.00;2581950;23;20623;-69
2022/01/10 04:47:52;;;;;;;29.55;21.45;;;;;;;6.09;70.66;100395.06;2582376;23;20162;-69
2022/01/10 04:48:52;;;;;;;28.47;21.30;;;;;;;6.11;70.57;100397.41;2582053;23;20182;-69
2022/01/10 04:51:16;;;;;;;28.90;20.27;;;;;;;6.09;71.14;100402.50;2582542;23;20137;-69
2022/01/10 04:52:17;;;;;;;29.45;20.33;;;;;;;4.97;70.65;100222.06;2568680;23;20231;-69
2022/01/10 04:53:17;;;;;;;29.33;19.97;;;;;;;6.08;70.98;100401.75;2569157;23;20147;-69
2022/01/10 04:54:18;;;;;;;28.57;19.97;;;;;;;6.09;70.92;100400.56;2581988;23;20225;-69